Time;durP1;ratioP1;P1;durP2;ratioP2;P2;SDS_P1;SDS_P2;PMS_P1;PMS_P2;Temp;Humidity;BMP_temperature;BMP_pressure;BME280_temperature;BME280_humidity;BME280_pressure;Samples;Min_cycle;Max_cycle;Signal;HPM_P1;HPM_P2
2022/05/31 00:00:32;;;;;;;12.27;7.72;;;11.90;99.90;;;;;;5039099;28;25087;-68
2022/05/31 00:02:59;;;;;;;12.73;7.72;;;11.90;99.90;;;;;;5040940;28;25081;-68
2022/05/31 00:05:32;;;;;;;11.65;7.93;;;11.90;99.90;;;;;;5034228;28;25078;-69
2022/05/31 00:07:58;;;;;;;12.85;8.05;;;11.80;99.90;;;;;;5035292;28;25077;-68
2022/05/31 00:10:24;;;;;;;15.02;9.05;;;11.90;99.90;;;;;;5034060;28;25069;-69
2022/05/31 00:12:50;;;;;;;13.80;7.28;;;11.90;99.90;;;;;;5038714;28;25062;-69
2022/05/31 00:15:18;;;;;;;12.07;8.32;;;11.90;99.90;;;;;;5037810;28;25055;-70
2022/05/31 00:17:44;;;;;;;12.63;8.32;;;11.90;99.90;;;;;;5036633;28;25119;-69
2022/05/31 00:20:12;;;;;;;18.95;7.82;;;11.90;99.90;;;;;;5037369;28;25099;-68
2022/05/31 00:22:39;;;;;;;13.13;8.25;;;11.80;99.90;;;;;;5038710;28;25051;-69
2022/05/31 00:25:06;;;;;;;15.02;7.72;;;11.80;99.90;;;;;;5028745;28;25083;-68
2022/05/31 00:27:32;;;;;;;13.00;8.85;;;11.80;99.90;;;;;;5026639;28;25062;-69
2022/05/31 00:29:57;;;;;;;14.52;8.35;;;11.90;99.90;;;;;;5026364;28;25084;-69
2022/05/31 00:32:30;;;;;;;14.45;8.93;;;11.90;99.90;;;;;;5023304;28;25061;-69
2022/05/31 00:35:18;;;;;;;12.98;7.90;;;11.80;99.90;;;;;;5028083;28;25108;-69
2022/05/31 00:37:45;;;;;;;15.02;8.77;;;11.70;99.90;;;;;;5028253;28;25112;-68
2022/05/31 00:40:16;;;;;;;14.02;7.63;;;11.70;99.90;;;;;;5029937;28;25087;-69
2022/05/31 00:42:58;;;;;;;17.80;9.07;;;11.60;99.90;;;;;;5028178;28;25158;-72
2022/05/31 00:45:40;;;;;;;12.30;8.98;;;11.60;99.90;;;;;;5024383;28;25179;-68
2022/05/31 00:48:33;;;;;;;12.35;8.10;;;11.50;99.90;;;;;;5023423;28;25068;-69
2022/05/31 00:51:06;;;;;;;14.18;8.88;;;11.50;99.90;;;;;;5020993;28;25050;-69
2022/05/31 00:53:37;;;;;;;16.92;8.65;;;11.50;99.90;;;;;;5022659;28;25052;-70
2022/05/31 00:56:11;;;;;;;11.70;8.47;;;11.60;99.90;;;;;;5025435;28;25077;-66
2022/05/31 00:58:44;;;;;;;16.73;8.23;;;11.50;99.90;;;;;;5027919;28;25124;-67
2022/05/31 01:01:14;;;;;;;10.98;8.32;;;11.40;99.90;;;;;;5025102;28;25059;-67
2022/05/31 01:03:42;;;;;;;13.77;8.05;;;11.50;99.90;;;;;;5022915;28;25091;-69
2022/05/31 01:06:10;;;;;;;12.32;6.97;;;11.50;99.90;;;;;;5023034;28;25123;-69
2022/05/31 01:08:36;;;;;;;11.38;7.35;;;11.40;99.90;;;;;;5023257;28;25076;-69
2022/05/31 01:11:03;;;;;;;15.57;7.38;;;11.40;99.90;;;;;;5023595;28;25092;-68
2022/05/31 01:13:29;;;;;;;9.52;7.68;;;11.40;99.90;;;;;;5024449;28;25114;-67
2022/05/31 01:16:04;;;;;;;10.07;7.22;;;11.40;99.90;;;;;;5026030;28;25144;-66
2022/05/31 01:18:31;;;;;;;14.40;7.72;;;11.50;99.90;;;;;;5025252;28;25089;-67
2022/05/31 01:20:56;;;;;;;12.63;6.88;;;11.40;99.90;;;;;;5026329;28;25051;-67
2022/05/31 01:23:25;;;;;;;11.00;7.30;;;11.40;99.90;;;;;;5026054;28;25134;-67
2022/05/31 01:26:00;;;;;;;12.35;8.38;;;11.40;99.90;;;;;;5026857;28;25074;-68
2022/05/31 01:29:07;;;;;;;12.93;7.60;;;11.40;99.90;;;;;;5020394;28;25086;-67
2022/05/31 01:31:33;;;;;;;10.32;8.15;;;11.30;99.90;;;;;;5023677;28;25096;-66
2022/05/31 01:34:15;;;;;;;14.02;8.13;;;11.30;99.90;;;;;;5021625;28;25144;-66
2022/05/31 01:36:54;;;;;;;10.40;7.15;;;11.30;99.90;;;;;;5022087;28;25075;-67
2022/05/31 01:39:47;;;;;;;10.38;7.47;;;11.30;99.90;;;;;;5023199;28;25072;-66
2022/05/31 01:42:26;;;;;;;13.32;7.65;;;11.30;99.90;;;;;;5024194;28;25136;-66
2022/05/31 01:44:57;;;;;;;14.32;8.23;;;11.30;99.90;;;;;;5025362;28;25058;-66
2022/05/31 01:47:23;;;;;;;10.93;7.63;;;11.20;99.90;;;;;;5027073;28;25048;-68
2022/05/31 01:49:53;;;;;;;16.13;8.18;;;11.20;99.90;;;;;;5027216;28;25149;-67
2022/05/31 01:52:19;;;;;;;9.55;7.15;;;11.20;99.90;;;;;;5030176;28;25109;-68
2022/05/31 01:54:47;;;;;;;10.05;7.75;;;11.30;99.90;;;;;;5024161;28;25087;-65
2022/05/31 01:57:15;;;;;;;10.25;7.65;;;11.30;99.90;;;;;;5024091;28;25124;-67
2022/05/31 01:59:46;;;;;;;14.23;7.95;;;11.20;99.90;;;;;;5023266;28;25071;-66
2022/05/31 02:02:15;;;;;;;12.85;7.82;;;11.20;99.90;;;;;;5023906;28;25156;-68
2022/05/31 02:04:42;;;;;;;12.85;7.75;;;11.20;99.90;;;;;;5021735;28;25139;-67
2022/05/31 02:07:13;;;;;;;12.65;7.80;;;11.20;99.90;;;;;;5025929;28;25049;-68
2022/05/31 02:09:43;;;;;;;11.20;8.15;;;11.10;99.90;;;;;;5026336;28;25061;-67
2022/05/31 02:12:11;;;;;;;12.13;7.60;;;11.10;99.90;;;;;;5027204;28;25083;-70
2022/05/31 02:14:37;;;;;;;14.70;8.25;;;11.00;99.90;;;;;;5045092;28;25069;-71
2022/05/31 02:17:04;;;;;;;14.55;7.95;;;11.00;99.90;;;;;;5039813;28;25057;-70
2022/05/31 02:19:29;;;;;;;11.18;8.40;;;10.90;99.90;;;;;;5022830;28;25080;-68
2022/05/31 02:22:03;;;;;;;15.90;8.63;;;10.90;99.90;;;;;;5021914;28;25133;-69
2022/05/31 02:24:29;;;;;;;14.35;8.02;;;10.90;99.90;;;;;;5020572;28;25172;-69
2022/05/31 02:26:58;;;;;;;16.20;10.20;;;10.90;99.90;;;;;;5020733;28;25054;-69
2022/05/31 02:29:28;;;;;;;15.00;8.00;;;11.00;99.90;;;;;;5023070;28;25073;-68
2022/05/31 02:31:56;;;;;;;13.65;8.23;;;11.00;99.90;;;;;;5021915;28;25130;-70
2022/05/31 02:34:26;;;;;;;15.75;8.73;;;11.00;99.90;;;;;;5020540;28;25078;-71
2022/05/31 02:36:52;;;;;;;16.35;8.10;;;11.00;99.90;;;;;;5022206;28;25060;-69
2022/05/31 02:39:18;;;;;;;11.43;8.50;;;11.00;99.90;;;;;;5020297;28;25054;-70
2022/05/31 02:41:44;;;;;;;13.65;9.43;;;10.90;99.90;;;;;;5022317;28;25078;-70
2022/05/31 02:44:10;;;;;;;12.77;8.75;;;10.80;99.90;;;;;;5021066;28;25139;-68
2022/05/31 02:46:36;;;;;;;11.98;8.65;;;10.80;99.90;;;;;;5019752;28;25065;-70
2022/05/31 02:49:04;;;;;;;15.27;8.63;;;10.80;99.90;;;;;;5021002;28;25103;-69
2022/05/31 02:51:36;;;;;;;13.43;7.90;;;10.80;99.90;;;;;;5021139;28;25147;-70
2022/05/31 02:54:02;;;;;;;12.07;8.68;;;10.80;99.90;;;;;;5020399;28;25099;-69
2022/05/31 02:56:28;;;;;;;16.52;8.68;;;10.70;99.90;;;;;;5022200;28;25143;-68
2022/05/31 02:58:54;;;;;;;13.38;8.68;;;10.70;99.90;;;;;;5022271;28;25091;-67
2022/05/31 03:01:28;;;;;;;13.77;8.80;;;10.60;99.90;;;;;;5019934;28;25062;-67
2022/05/31 03:03:54;;;;;;;10.55;8.52;;;10.70;99.90;;;;;;5020921;28;25067;-66
2022/05/31 03:06:21;;;;;;;12.02;8.55;;;10.70;99.90;;;;;;5021035;28;25064;-67
2022/05/31 03:08:47;;;;;;;13.65;8.75;;;10.80;99.90;;;;;;5020256;28;25071;-69
2022/05/31 03:11:19;;;;;;;15.00;9.63;;;10.70;99.90;;;;;;5021235;28;25175;-66
2022/05/31 03:13:47;;;;;;;11.52;7.75;;;10.70;99.90;;;;;;5020976;28;25072;-71
2022/05/31 03:16:15;;;;;;;14.82;9.02;;;10.70;99.90;;;;;;5022614;28;25054;-68
2022/05/31 03:18:48;;;;;;;14.23;8.55;;;10.70;99.90;;;;;;5022865;28;25071;-67
2022/05/31 03:21:18;;;;;;;12.07;7.93;;;10.80;99.90;;;;;;5023011;28;25103;-67
2022/05/31 03:23:52;;;;;;;13.63;8.88;;;10.70;99.90;;;;;;5020578;28;25144;-69
2022/05/31 03:26:20;;;;;;;12.07;8.20;;;10.70;99.90;;;;;;5022526;28;25069;-66
2022/05/31 03:28:47;;;;;;;16.42;8.38;;;10.70;99.90;;;;;;5021785;28;25061;-69
2022/05/31 03:31:15;;;;;;;13.38;9.43;;;10.70;99.90;;;;;;5021987;28;25100;-64
2022/05/31 03:33:41;;;;;;;18.08;9.55;;;10.70;99.90;;;;;;5022404;28;24904;-69
2022/05/31 03:36:07;;;;;;;13.80;8.63;;;10.70;99.90;;;;;;5019722;28;25146;-65
2022/05/31 03:38:32;;;;;;;12.27;8.10;;;10.60;99.90;;;;;;5019224;28;25076;-68
2022/05/31 03:43:50;;;;;;;11.35;8.45;;;10.70;99.90;;;;;;5018992;28;25115;-68
2022/05/31 03:46:16;;;;;;;12.32;8.63;;;10.70;99.90;;;;;;5023188;28;25096;-66
2022/05/31 03:48:42;;;;;;;13.38;8.48;;;10.70;99.90;;;;;;5025600;28;25089;-67
2022/05/31 03:51:10;;;;;;;11.98;7.90;;;10.70;99.90;;;;;;5026440;28;25134;-65
2022/05/31 03:53:37;;;;;;;13.70;9.05;;;10.80;99.90;;;;;;5023020;28;25121;-68
2022/05/31 03:56:08;;;;;;;11.70;8.35;;;10.80;99.90;;;;;;5027751;28;25105;-67
2022/05/31 03:58:34;;;;;;;17.05;8.15;;;10.80;99.90;;;;;;5024818;28;25101;-65
2022/05/31 04:01:03;;;;;;;14.27;8.45;;;10.80;99.90;;;;;;5025606;28;25095;-69
2022/05/31 04:03:29;;;;;;;14.00;7.85;;;10.80;99.90;;;;;;5024921;28;25073;-67
2022/05/31 04:05:55;;;;;;;13.40;8.85;;;10.80;99.90;;;;;;5022512;28;25102;-68
2022/05/31 04:08:22;;;;;;;12.85;9.20;;;10.80;99.90;;;;;;5025245;28;25092;-67
2022/05/31 04:10:48;;;;;;;15.27;9.52;;;10.80;99.90;;;;;;5023704;28;25123;-65
2022/05/31 04:13:16;;;;;;;12.63;8.43;;;10.70;99.90;;;;;;5023533;28;25093;-67
2022/05/31 04:15:42;;;;;;;11.50;8.35;;;10.70;99.90;;;;;;5020407;28;25098;-68
2022/05/31 04:18:08;;;;;;;9.35;8.15;;;10.70;99.90;;;;;;5025204;28;25149;-70
2022/05/31 04:20:37;;;;;;;13.02;7.82;;;10.80;99.90;;;;;;5024627;28;25077;-68
2022/05/31 04:25:47;;;;;;;10.38;7.82;;;11.00;99.90;;;;;;5025526;28;25060;-67
2022/05/31 04:28:12;;;;;;;10.38;7.78;;;11.10;99.90;;;;;;5027652;28;25159;-67
2022/05/31 04:30:45;;;;;;;9.88;7.25;;;11.30;99.90;;;;;;5025501;28;25060;-68
2022/05/31 04:33:11;;;;;;;;;;;11.40;99.90;;;;;;5025546;28;29106;-68
2022/05/31 04:35:36;;;;;;;10.73;7.35;;;11.40;99.90;;;;;;5022989;28;25094;-67
2022/05/31 04:38:02;;;;;;;10.77;7.40;;;11.30;99.90;;;;;;5023082;28;25087;-67
2022/05/31 04:40:29;;;;;;;11.35;7.57;;;11.40;99.90;;;;;;5023777;28;25075;-67
2022/05/31 04:42:54;;;;;;;12.30;6.95;;;11.50;99.90;;;;;;5023112;28;25069;-65
2022/05/31 04:45:20;;;;;;;9.95;7.47;;;11.50;99.90;;;;;;5023844;28;25064;-69
2022/05/31 04:47:46;;;;;;;14.30;7.88;;;11.60;99.90;;;;;;5025105;28;25070;-68
2022/05/31 04:50:11;;;;;;;11.60;7.55;;;11.70;99.90;;;;;;5025919;28;25151;-68
2022/05/31 04:52:37;;;;;;;11.88;7.35;;;11.70;99.90;;;;;;5026225;28;25070;-68
2022/05/31 04:55:04;;;;;;;9.48;6.88;;;11.70;99.90;;;;;;5026775;28;25083;-67
2022/05/31 04:57:30;;;;;;;11.23;7.20;;;11.70;99.90;;;;;;5023518;28;25073;-68
2022/05/31 04:59:56;;;;;;;11.63;7.18;;;11.70;99.90;;;;;;5025149;28;25075;-70
2022/05/31 05:02:22;;;;;;;8.18;6.50;;;11.90;99.90;;;;;;5022535;28;25136;-68
2022/05/31 05:04:47;;;;;;;10.30;6.80;;;12.00;99.90;;;;;;5023494;28;25124;-68
2022/05/31 05:07:13;;;;;;;9.38;6.97;;;12.10;99.90;;;;;;5021739;28;25082;-66
2022/05/31 05:09:38;;;;;;;14.52;6.88;;;12.30;99.90;;;;;;5023730;28;25072;-67
2022/05/31 05:12:04;;;;;;;11.55;6.93;;;12.20;99.90;;;;;;5023231;28;25076;-68
2022/05/31 05:14:30;;;;;;;10.75;7.30;;;12.30;99.90;;;;;;5023329;28;25057;-68
2022/05/31 05:16:56;;;;;;;11.65;7.32;;;12.40;99.90;;;;;;5021443;28;25090;-67
2022/05/31 05:19:22;;;;;;;11.68;7.70;;;12.50;99.90;;;;;;5023862;28;25080;-68
2022/05/31 05:21:47;;;;;;;11.88;7.22;;;12.50;99.90;;;;;;5024085;28;25108;-70
2022/05/31 05:24:13;;;;;;;9.40;7.63;;;12.60;99.90;;;;;;5021327;28;25049;-68
2022/05/31 05:26:39;;;;;;;8.45;7.00;;;12.60;99.90;;;;;;5019675;28;25098;-66
2022/05/31 05:31:52;;;;;;;12.15;7.25;;;12.60;99.90;;;;;;5024914;28;25057;-70
2022/05/31 05:34:18;;;;;;;10.00;6.82;;;12.60;99.90;;;;;;5024948;28;25107;-69
2022/05/31 05:36:45;;;;;;;12.27;7.60;;;12.60;99.90;;;;;;5026584;28;25059;-68
2022/05/31 05:39:11;;;;;;;9.45;7.78;;;12.60;99.90;;;;;;5025661;28;25074;-68
2022/05/31 05:41:39;;;;;;;10.68;6.97;;;12.70;99.90;;;;;;5027844;28;25078;-68
2022/05/31 05:44:05;;;;;;;12.02;7.13;;;12.90;99.90;;;;;;5028307;28;25059;-67
2022/05/31 05:46:31;;;;;;;10.75;7.50;;;12.90;99.90;;;;;;5029268;28;25109;-67
2022/05/31 05:48:57;;;;;;;8.82;6.85;;;12.90;99.90;;;;;;5031519;28;25180;-68
2022/05/31 05:51:31;;;;;;;14.05;8.40;;;12.90;99.90;;;;;;5028135;28;25070;-68
2022/05/31 05:53:57;;;;;;;9.80;7.43;;;12.70;99.90;;;;;;5027566;28;25086;-69
2022/05/31 05:56:23;;;;;;;9.13;7.50;;;12.70;99.90;;;;;;5025603;28;25070;-68
2022/05/31 05:59:06;;;;;;;16.38;7.45;;;12.90;99.90;;;;;;5030002;28;25099;-67
2022/05/31 06:01:40;;;;;;;14.38;7.90;;;13.00;99.90;;;;;;5027176;28;25109;-68
2022/05/31 06:04:28;;;;;;;10.65;7.43;;;13.30;99.90;;;;;;5022260;28;25123;-68
2022/05/31 06:07:07;;;;;;;10.95;7.53;;;13.60;99.90;;;;;;5028911;28;25057;-70
2022/05/31 06:09:34;;;;;;;13.00;7.47;;;13.60;99.90;;;;;;5028453;28;25072;-69
2022/05/31 06:12:05;;;;;;;11.57;7.53;;;13.60;99.90;;;;;;5031882;28;25077;-70
2022/05/31 06:14:52;;;;;;;8.15;6.82;;;13.60;99.90;;;;;;5029026;28;25079;-69
2022/05/31 06:17:31;;;;;;;14.20;7.13;;;13.60;99.90;;;;;;5029647;28;25053;-70
2022/05/31 06:20:01;;;;;;;7.40;6.65;;;13.60;99.90;;;;;;5033421;28;25067;-69
2022/05/31 06:22:28;;;;;;;13.07;7.18;;;13.70;99.90;;;;;;5042784;28;25086;-70
2022/05/31 06:24:56;;;;;;;16.10;7.13;;;13.60;99.90;;;;;;5045428;28;25070;-70
2022/05/31 06:27:22;;;;;;;12.45;7.72;;;13.60;99.90;;;;;;5046466;28;25105;-71
2022/05/31 06:29:47;;;;;;;12.23;6.70;;;13.60;99.90;;;;;;5045262;28;25069;-71
2022/05/31 06:32:14;;;;;;;8.82;6.93;;;13.70;99.90;;;;;;5058266;22;25068;-62
2022/05/31 06:34:40;;;;;;;12.30;7.03;;;13.80;99.90;;;;;;5049710;28;25083;-61
2022/05/31 06:37:09;;;;;;;13.15;7.55;;;13.80;99.90;;;;;;5037382;28;25069;-61
2022/05/31 06:39:36;;;;;;;10.38;6.10;;;13.90;99.90;;;;;;5034638;28;25059;-61
2022/05/31 06:42:03;;;;;;;20.10;7.05;;;14.10;99.90;;;;;;5034720;28;25073;-62
2022/05/31 06:44:32;;;;;;;17.05;8.13;;;14.40;99.90;;;;;;5038684;22;25096;-70
2022/05/31 06:46:58;;;;;;;16.38;8.15;;;14.60;99.90;;;;;;5023613;28;25127;-69
2022/05/31 06:49:23;;;;;;;11.00;7.28;;;14.60;99.90;;;;;;5025198;28;25056;-69
2022/05/31 06:57:18;;;;;;;12.10;7.43;;;14.70;99.90;;;;;;5023224;28;25099;-70
2022/05/31 06:59:43;;;;;;;12.30;7.93;;;14.50;99.90;;;;;;5024413;28;25108;-69
2022/05/31 07:02:10;;;;;;;8.27;6.90;;;14.60;99.90;;;;;;5023830;28;25098;-69
2022/05/31 07:04:37;;;;;;;8.80;7.22;;;14.60;99.90;;;;;;5023463;28;25058;-69
2022/05/31 07:07:04;;;;;;;11.50;6.70;;;15.00;99.90;;;;;;5005997;28;25144;-68
2022/05/31 07:09:33;;;;;;;11.90;6.57;;;15.30;99.90;;;;;;5024896;28;25150;-69
2022/05/31 07:11:59;;;;;;;11.95;6.05;;;15.50;99.90;;;;;;5022727;28;25058;-68
2022/05/31 07:14:25;;;;;;;9.25;6.88;;;15.70;99.90;;;;;;5025952;28;25064;-68
2022/05/31 07:16:50;;;;;;;7.63;5.63;;;15.90;99.90;;;;;;5007321;28;25047;-69
2022/05/31 07:19:16;;;;;;;7.95;5.85;;;16.10;99.90;;;;;;5019017;28;25081;-69
2022/05/31 07:21:42;;;;;;;8.48;5.53;;;16.30;99.90;;;;;;5010681;28;25100;-69
2022/05/31 07:24:09;;;;;;;7.57;5.47;;;16.20;99.90;;;;;;5026993;28;25148;-70
2022/05/31 07:26:35;;;;;;;11.65;6.15;;;16.40;99.90;;;;;;5026243;28;25067;-68
2022/05/31 07:29:00;;;;;;;8.65;6.03;;;16.50;99.90;;;;;;5022951;28;25050;-68
2022/05/31 07:31:26;;;;;;;10.75;6.00;;;16.60;99.40;;;;;;5005404;28;25226;-70
2022/05/31 07:33:52;;;;;;;11.18;5.88;;;16.70;99.50;;;;;;5022931;28;25124;-69
2022/05/31 07:36:19;;;;;;;9.23;5.78;;;16.80;97.70;;;;;;5021823;28;25054;-70
2022/05/31 07:38:45;;;;;;;15.68;7.20;;;16.90;98.10;;;;;;5022190;28;25076;-69
2022/05/31 07:41:11;;;;;;;9.68;6.55;;;17.00;96.80;;;;;;5004276;28;25120;-71
2022/05/31 07:43:37;;;;;;;12.50;7.25;;;17.10;96.30;;;;;;5011401;28;25057;-69
2022/05/31 07:46:13;;;;;;;12.77;7.28;;;17.10;97.60;;;;;;5020609;28;25117;-69
2022/05/31 07:48:39;;;;;;;14.43;7.75;;;17.60;96.80;;;;;;5025343;28;25063;-69
2022/05/31 07:51:06;;;;;;;13.77;7.30;;;17.50;94.10;;;;;;5011882;28;25092;-70
2022/05/31 07:53:32;;;;;;;9.95;7.40;;;17.90;95.70;;;;;;5011223;28;25131;-70
2022/05/31 07:56:09;;;;;;;12.30;8.23;;;18.30;91.90;;;;;;5020903;28;25141;-70
2022/05/31 07:58:37;;;;;;;12.30;7.82;;;18.70;91.60;;;;;;5022418;28;25082;-69
2022/05/31 08:01:08;;;;;;;12.43;7.57;;;18.80;91.00;;;;;;5004419;28;25092;-66
2022/05/31 08:03:37;;;;;;;8.13;6.90;;;19.00;90.00;;;;;;5021319;28;25060;-68
2022/05/31 08:06:06;;;;;;;15.02;7.70;;;19.10;90.30;;;;;;5002999;28;25098;-67
2022/05/31 08:08:31;;;;;;;13.48;7.55;;;19.10;90.90;;;;;;5005028;28;25087;-69
2022/05/31 08:10:57;;;;;;;16.25;8.05;;;19.10;87.60;;;;;;5022545;28;25127;-69
2022/05/31 08:13:23;;;;;;;11.70;7.20;;;19.10;84.00;;;;;;5026490;28;25069;-69
2022/05/31 08:15:48;;;;;;;13.18;7.25;;;19.30;84.80;;;;;;5022400;28;25146;-67
2022/05/31 08:18:14;;;;;;;13.98;7.43;;;19.60;75.80;;;;;;5022984;28;25065;-69
2022/05/31 08:20:40;;;;;;;13.52;7.75;;;19.60;69.40;;;;;;5021265;28;25065;-68
2022/05/31 08:23:06;;;;;;;9.27;6.50;;;19.60;69.50;;;;;;5009192;28;25097;-68
2022/05/31 08:25:34;;;;;;;9.50;6.70;;;19.50;68.20;;;;;;5002711;28;25126;-68
2022/05/31 08:28:01;;;;;;;13.15;7.00;;;19.60;68.60;;;;;;5020276;28;25066;-70
2022/05/31 08:30:27;;;;;;;12.43;7.18;;;19.70;65.50;;;;;;5006306;28;25131;-70
2022/05/31 08:32:53;;;;;;;8.60;6.25;;;19.70;66.30;;;;;;5027244;28;25065;-69
2022/05/31 08:35:19;;;;;;;13.80;7.28;;;20.10;61.70;;;;;;5026354;28;25064;-68
2022/05/31 08:37:44;;;;;;;8.10;5.78;;;19.80;55.40;;;;;;5008974;28;25135;-69
2022/05/31 08:40:11;;;;;;;11.13;6.20;;;19.60;55.60;;;;;;5027594;28;25058;-68
2022/05/31 08:42:48;;;;;;;11.80;5.50;;;19.80;55.20;;;;;;5026309;28;25087;-68
2022/05/31 08:45:43;;;;;;;15.10;6.40;;;19.60;48.10;;;;;;5028320;28;25122;-68
2022/05/31 08:48:31;;;;;;;8.90;5.47;;;19.80;52.70;;;;;;5026511;28;25073;-68
2022/05/31 08:56:57;;;;;;;;;;;20.50;45.40;;;;;;5029496;28;25049;-69
2022/05/31 08:59:48;;;;;;;8.48;3.47;;;20.40;45.30;;;;;;5032647;28;25084;-71
2022/05/31 09:02:19;;;;;;;6.78;2.60;;;20.80;40.70;;;;;;5028901;28;25086;-68
2022/05/31 09:05:06;;;;;;;8.00;4.40;;;20.40;32.80;;;;;;5047339;28;25061;-69
2022/05/31 09:08:09;;;;;;;8.63;4.63;;;19.90;37.90;;;;;;5045414;28;25087;-69
2022/05/31 09:10:54;;;;;;;7.75;5.00;;;20.00;38.20;;;;;;5039671;28;25112;-69
2022/05/31 09:13:43;;;;;;;8.35;7.15;;;20.00;41.90;;;;;;5031558;28;25066;-68
2022/05/31 09:16:56;;;;;;;9.70;5.53;;;19.80;48.30;;;;;;5042906;28;25077;-69
2022/05/31 09:19:37;;;;;;;9.73;4.30;;;20.20;51.00;;;;;;5014046;28;25172;-69
2022/05/31 09:22:06;;;;;;;9.00;5.40;;;20.30;43.30;;;;;;5009966;28;25105;-69
2022/05/31 09:24:33;;;;;;;7.75;5.65;;;20.30;42.20;;;;;;5039141;28;25045;-67
2022/05/31 09:27:04;;;;;;;8.63;4.65;;;20.40;43.00;;;;;;5012029;28;25163;-68
2022/05/31 09:29:36;;;;;;;10.27;5.68;;;20.80;46.10;;;;;;5029353;28;25117;-69
2022/05/31 09:32:20;;;;;;;7.87;5.07;;;21.20;37.20;;;;;;5017067;28;25177;-68
2022/05/31 09:35:14;;;;;;;7.18;3.40;;;20.50;39.00;;;;;;5025913;28;25107;-69
2022/05/31 09:37:49;;;;;;;9.25;4.32;;;20.80;31.30;;;;;;5023384;28;25102;-68
2022/05/31 09:40:38;;;;;;;9.73;4.20;;;20.70;29.00;;;;;;5023505;28;25160;-70
2022/05/31 09:43:22;;;;;;;10.73;5.10;;;20.50;35.80;;;;;;5024455;28;25172;-70
2022/05/31 09:46:08;;;;;;;7.32;3.85;;;20.70;35.00;;;;;;5007873;28;25074;-70
2022/05/31 09:48:46;;;;;;;6.15;4.15;;;21.20;33.00;;;;;;5005715;28;25152;-71
2022/05/31 09:51:37;;;;;;;8.75;4.00;;;21.30;28.30;;;;;;5024589;28;25090;-70
2022/05/31 09:57:06;;;;;;;8.50;4.55;;;21.80;29.60;;;;;;5025704;28;25156;-70
2022/05/31 09:59:51;;;;;;;8.90;4.82;;;21.10;25.30;;;;;;5015275;28;25056;-70
2022/05/31 10:02:31;;;;;;;6.82;4.13;;;19.70;28.20;;;;;;5025771;28;25058;-67
2022/05/31 10:05:18;;;;;;;8.43;4.00;;;19.50;37.70;;;;;;5025437;28;25097;-69
2022/05/31 10:07:44;;;;;;;10.48;4.50;;;20.40;38.50;;;;;;5026270;28;25129;-69
2022/05/31 10:10:15;;;;;;;8.15;4.38;;;21.20;31.50;;;;;;5022720;28;25053;-70
2022/05/31 10:13:06;;;;;;;12.27;5.78;;;21.20;27.40;;;;;;5004212;28;25099;-66
2022/05/31 10:15:43;;;;;;;9.45;6.30;;;21.00;32.00;;;;;;5021860;28;25062;-67
2022/05/31 10:18:24;;;;;;;12.48;7.00;;;20.90;36.30;;;;;;5023723;28;25094;-70
2022/05/31 10:21:11;;;;;;;9.88;6.68;;;21.10;37.30;;;;;;5028287;28;25140;-67
2022/05/31 10:23:47;;;;;;;7.97;4.65;;;21.10;39.50;;;;;;5024508;28;25064;-66
2022/05/31 10:26:32;;;;;;;7.57;4.93;;;21.40;29.70;;;;;;5022500;28;25124;-69
2022/05/31 10:29:07;;;;;;;9.02;5.50;;;21.90;27.20;;;;;;5004730;28;25122;-67
2022/05/31 10:31:36;;;;;;;7.88;4.82;;;21.60;26.20;;;;;;5004923;28;25066;-67
2022/05/31 10:35:11;;;;;;;9.02;5.28;;;21.60;22.90;;;;;;5003756;28;25098;-68
2022/05/31 10:37:26;;;;;;;10.25;5.40;;;21.10;25.10;;;;;;4993855;28;25156;-68
2022/05/31 10:40:06;;;;;;;8.18;4.93;;;20.90;29.80;;;;;;5023385;28;25059;-70
2022/05/31 10:42:36;;;;;;;11.02;5.45;;;21.60;33.60;;;;;;5021458;28;25101;-67
2022/05/31 10:45:38;;;;;;;8.93;5.95;;;22.30;28.20;;;;;;5023996;28;25141;-70
2022/05/31 10:48:04;;;;;;;;;;;21.50;27.80;;;;;;5024368;28;25082;-69
2022/05/31 10:50:44;;;;;;;8.13;5.10;;;21.90;24.40;;;;;;5029716;28;25056;-69
2022/05/31 10:53:29;;;;;;;9.73;5.57;;;21.60;23.00;;;;;;5008621;28;25076;-71
2022/05/31 10:56:27;;;;;;;10.88;6.90;;;21.00;28.50;;;;;;5031735;28;25065;-69
2022/05/31 10:59:00;;;;;;;12.10;6.70;;;20.30;32.30;;;;;;5018917;28;25073;-69
2022/05/31 11:01:49;;;;;;;9.57;5.82;;;20.20;39.50;;;;;;5023881;28;25069;-69
2022/05/31 11:04:41;;;;;;;7.75;5.80;;;20.20;37.70;;;;;;5022794;28;25068;-69
2022/05/31 11:07:40;;;;;;;13.10;6.50;;;20.20;38.10;;;;;;5023411;28;25131;-70
2022/05/31 11:13:32;;;;;;;12.88;5.85;;;20.80;33.90;;;;;;5020924;28;25072;-70
2022/05/31 11:16:32;;;;;;;11.05;5.40;;;21.50;32.90;;;;;;5021203;28;25142;-70
2022/05/31 11:19:10;;;;;;;10.65;5.78;;;21.30;32.30;;;;;;5022765;28;25086;-69
2022/05/31 11:22:29;;;;;;;10.02;5.68;;;20.70;29.80;;;;;;5023006;28;25317;-69
2022/05/31 11:25:12;;;;;;;8.60;6.13;;;20.40;31.80;;;;;;4977968;28;25089;-70
2022/05/31 11:27:57;;;;;;;11.25;5.82;;;19.80;30.10;;;;;;5022602;28;25094;-69
2022/05/31 11:30:34;;;;;;;8.73;5.47;;;19.30;35.70;;;;;;5022882;28;25079;-69
2022/05/31 11:33:15;;;;;;;7.00;4.75;;;19.50;40.20;;;;;;5023525;28;25098;-69
2022/05/31 11:36:06;;;;;;;10.10;5.45;;;19.40;39.30;;;;;;5025485;28;25092;-69
2022/05/31 11:38:54;;;;;;;10.10;5.22;;;19.40;36.70;;;;;;5022082;28;25114;-69
2022/05/31 11:41:38;;;;;;;11.00;5.45;;;19.60;39.00;;;;;;5022369;28;25058;-69
2022/05/31 11:44:30;;;;;;;7.32;4.40;;;19.60;35.60;;;;;;5021256;28;25129;-70
2022/05/31 11:47:14;;;;;;;10.23;6.03;;;20.00;37.40;;;;;;5022804;28;25062;-69
2022/05/31 11:50:09;;;;;;;4.65;4.00;;;20.20;35.90;;;;;;5022857;28;25079;-70
2022/05/31 11:52:53;;;;;;;7.03;4.57;;;20.30;34.80;;;;;;5022995;28;25094;-70
2022/05/31 11:55:25;;;;;;;7.22;4.43;;;20.20;31.20;;;;;;5022883;28;25064;-72
2022/05/31 11:58:30;;;;;;;5.05;4.32;;;21.20;35.60;;;;;;5022248;28;25071;-69
2022/05/31 12:01:11;;;;;;;8.80;4.97;;;22.00;30.40;;;;;;5024673;28;25148;-69
2022/05/31 12:04:03;;;;;;;9.25;5.10;;;22.60;27.10;;;;;;5023279;28;25079;-67
2022/05/31 12:07:04;;;;;;;9.73;5.47;;;23.00;23.80;;;;;;5022954;28;25069;-66
2022/05/31 12:09:33;;;;;;;7.63;5.00;;;22.90;24.10;;;;;;5027960;28;25119;-72
2022/05/31 12:12:20;;;;;;;6.90;5.03;;;22.90;24.60;;;;;;5014131;28;25081;-68
2022/05/31 12:14:50;;;;;;;5.82;4.65;;;23.00;17.40;;;;;;5025606;28;25049;-71
2022/05/31 12:17:26;;;;;;;7.00;4.97;;;22.60;23.90;;;;;;5029366;28;25075;-70
2022/05/31 12:20:03;;;;;;;6.95;4.30;;;21.80;20.40;;;;;;5029372;28;25053;-68
2022/05/31 12:22:41;;;;;;;5.35;4.13;;;21.30;23.30;;;;;;5030488;28;25066;-69
2022/05/31 12:25:23;;;;;;;6.38;3.55;;;20.50;25.60;;;;;;5031254;28;25072;-68
2022/05/31 12:28:18;;;;;;;10.50;4.10;;;20.30;29.40;;;;;;5031879;28;25154;-71
2022/05/31 12:31:12;;;;;;;6.32;4.03;;;19.90;28.00;;;;;;5028950;28;25173;-69
2022/05/31 12:33:47;;;;;;;10.30;4.55;;;19.30;38.00;;;;;;5031485;28;25066;-69
2022/05/31 12:36:19;;;;;;;8.35;3.92;;;18.30;50.80;;;;;;5030697;28;25158;-69
2022/05/31 12:39:08;;;;;;;10.45;3.38;;;17.80;59.80;;;;;;5029087;28;25052;-69
2022/05/31 12:41:46;;;;;;;19.17;4.35;;;17.60;72.50;;;;;;5011495;28;25099;-68
2022/05/31 12:44:27;;;;;;;6.65;3.25;;;16.70;93.90;;;;;;5008485;28;25059;-68
2022/05/31 12:46:53;;;;;;;6.68;2.95;;;15.40;99.90;;;;;;5026774;28;25099;-69
2022/05/31 12:49:28;;;;;;;4.53;3.03;;;14.50;99.90;;;;;;5024699;28;25144;-72
2022/05/31 12:54:45;;;;;;;3.72;2.00;;;14.60;99.90;;;;;;5026034;28;25117;-70
2022/05/31 13:00:33;;;;;;;4.00;2.70;;;15.10;99.90;;;;;;5022895;28;25062;-71
2022/05/31 13:03:00;;;;;;;2.08;1.88;;;16.10;99.90;;;;;;5009253;28;25078;-71
2022/05/31 13:05:37;;;;;;;3.08;2.15;;;16.60;99.90;;;;;;5023162;28;25126;-70
2022/05/31 13:08:14;;;;;;;5.53;2.58;;;17.00;99.90;;;;;;5020879;28;25055;-70
2022/05/31 13:19:34;;;;;;;6.47;2.72;;;17.70;99.90;;;;;;5023730;28;25071;-71
2022/05/31 13:22:03;;;;;;;2.80;2.20;;;18.40;87.70;;;;;;5034441;28;25088;-71
2022/05/31 13:24:29;;;;;;;3.50;2.80;;;18.40;84.70;;;;;;5034066;28;25058;-70
2022/05/31 13:26:57;;;;;;;3.90;2.50;;;18.30;83.30;;;;;;5033577;28;25134;-69
2022/05/31 13:29:23;;;;;;;6.40;2.78;;;18.30;73.30;;;;;;5033852;28;25092;-69
2022/05/31 13:31:57;;;;;;;3.83;2.95;;;18.50;87.40;;;;;;5034450;28;25068;-70
2022/05/31 13:34:36;;;;;;;5.15;2.80;;;18.70;65.60;;;;;;5010483;28;25044;-70
2022/05/31 13:37:11;;;;;;;6.47;3.53;;;18.80;66.40;;;;;;5029018;28;25057;-70
2022/05/31 13:39:47;;;;;;;4.32;2.85;;;19.00;72.90;;;;;;5026873;28;25049;-69
2022/05/31 13:42:38;;;;;;;4.53;2.60;;;19.50;61.60;;;;;;5007836;28;25053;-70
2022/05/31 13:45:08;;;;;;;5.43;3.40;;;19.60;60.50;;;;;;5025772;28;25059;-69
2022/05/31 13:47:34;;;;;;;3.65;3.13;;;19.50;69.10;;;;;;5006435;28;25162;-70
2022/05/31 13:50:09;;;;;;;5.88;3.58;;;19.50;59.30;;;;;;5031373;28;25107;-70